Ana Sayfa
METAR-TAF:

METAR-TAF

Havaalanları :

Ocean County, New Jersey, Amerika Birleşik Devletleri

Enlem: 39-55-39N, Boylam: 074-17-33W, yükseklik: 25 m

Güncel hava durumu gözlemi

Rapor saat 07:56 UTC de 40 dakika önce yapıldı.
Rüzgar kuzey/kuzeydoğudan 7 kt
Sıcaklık 12°C
Nem 94%
Basınç 1023 hPa
Görüş mesafesi: 8.0 km
400 ft yükseklikte çok bulutlu
Pus

METAR: KMJX 250756Z AUTO 03007KT 5SM BR OVC004 12/11 A3021 RMK AO2 RAB06E19 SLP234 P0000 T01170111

Saat: 04:36 (08:36 UTC)


TAF: eksik

4.000'den fazla havaalanı için hava durumu gözlemleri ve tahminleri (METAR ve TAF raporları).

Kullanılabilir istasyonlar harita üzerinde sarı ve kırmızı noktalarla gösterilir.

İstasyonun adını görmek için fareyi noktanın üzerinde gezdirin.

Sonrasında hava gözlem ve tahminlerini görmek için tıklayın.

Haritayı değiştirmek için: yaklaştırmak için siyah artı işaretli yeşil düğmeye ve uzaklaştırmak için de eksi işaretli düğmeye hızla tıklayın; bitişik haritalar için yeşil okları kullanın.


METAR-TAF: